Flight Track Log - Related Links

Times and Time Zones

All times are in EDT time to prevent confusion due to time zone crossing. See the SWA1004 flight status page for this flight to view local times or setup timezone preferences in your user account.

Time Position Orientation Groundspeed Altitude Reporting Facility
EDT Latitude Longitude Course Direction KTS MPH feet Rate Location/Type
Sun 08:17:31 AM 42.3500 -71.0167 144° Southeast 158 182 800  Level KA90
Sun 08:18:01 AM 42.3333 -71.0000 144° Southeast 174 200 2,000 2,655 Climbing KA90
Sun 08:20:16 AM 42.3325 -70.8225 90° East 272 313 8,100 2,663 Climbing Boston Center
Sun 08:21:17 AM 42.2814 -70.7394 130° Southeast 253 291 10,700 2,479 Climbing Boston Center
Sun 08:22:17 AM 42.1964 -70.7642 192° South 222 255 13,100 2,797 Climbing Boston Center
Sun 08:23:15 AM 42.1647 -70.8939 252° West 240 276 16,200 2,723 Climbing Boston Center
Sun 08:24:16 AM 42.1642 -71.0144 270° West 316 364 18,500 2,410 Climbing Boston Center
Sun 08:25:17 AM 42.1492 -71.1575 262° West 351 404 21,100 2,471 Climbing Boston Center
Sun 08:26:15 AM 42.1217 -71.2953 255° West 372 428 23,400 2,218 Climbing Boston Center
Sun 08:27:16 AM 42.0897 -71.4386 253° West 386 444 25,500 1,884 Climbing Boston Center
Sun 08:28:16 AM 42.0533 -71.5817 251° West 403 464 27,200 1,537 Climbing Boston Center
Sun 08:29:17 AM 42.0189 -71.7331 253° West 413 475 28,600 1,261 Climbing Boston Center
Sun 08:30:15 AM 41.9844 -71.8928 254° West 426 490 29,700 1,500 Climbing Boston Center
Sun 08:31:17 AM 41.9494 -72.0522 254° West 447 514 31,600 1,869 Climbing Boston Center
Sun 08:32:17 AM 41.9125 -72.2086 252° West 447 514 33,500 1,780 Climbing Boston Center
Sun 08:33:15 AM 41.8794 -72.3647 254° West 447 514 35,100 1,525 Climbing Boston Center
Sun 08:34:15 AM 41.8439 -72.5153 252° West 440 506 36,500 1,388 Climbing Boston Center
Sun 08:35:16 AM 41.8083 -72.6797 254° West 430 495 37,900 744 Climbing Boston Center
Sun 08:36:16 AM 41.7725 -72.8158 251° West 430 495 38,000 50 Climbing Boston Center
Sun 08:37:17 AM 41.7386 -72.9686 253° West 430 495 38,000  Level Boston Center
Sun 08:39:14 AM 41.6683 -73.2678 253° West 416 479 38,000  Level New York Center
Sun 08:40:14 AM 41.5986 -73.4122 237° Southwest 427 491 38,000  Level New York Center
Sun 08:41:14 AM 41.5206 -73.5392 231° Southwest 429 494 38,000  Level New York Center
Sun 08:42:14 AM 41.4428 -73.6661 231° Southwest 443 510 38,000  Level New York Center
Sun 08:43:14 AM 41.3644 -73.7925 230° Southwest 448 516 38,000  Level New York Center
Sun 08:44:14 AM 41.2864 -73.9161 230° Southwest 448 516 38,000  Level New York Center
Sun 08:45:14 AM 41.2100 -74.0392 230° Southwest 448 516 38,000  Level New York Center
Sun 08:46:14 AM 41.1317 -74.1650 230° Southwest 448 516 38,000  Level New York Center
Sun 08:47:14 AM 41.0556 -74.2739 227° Southwest 448 516 38,000  Level New York Center
Sun 08:48:14 AM 40.9767 -74.3989 230° Southwest 448 516 38,000  Level New York Center
Sun 08:49:14 AM 40.9000 -74.5211 230° Southwest 443 510 38,000  Level New York Center
Sun 08:50:14 AM 40.8208 -74.6456 230° Southwest 443 510 38,000  Level New York Center
Sun 08:51:14 AM 40.7419 -74.7672 229° Southwest 443 510 38,000  Level New York Center
Sun 08:52:14 AM 40.6647 -74.8886 230° Southwest 443 510 38,000  Level New York Center
Sun 08:53:14 AM 40.5833 -75.0119 229° Southwest 443 510 38,000  Level New York Center
Sun 08:54:14 AM 40.5058 -75.1383 231° Southwest 443 510 38,000  Level New York Center
Sun 08:55:14 AM 40.4242 -75.2586 228° Southwest 443 510 38,000  Level New York Center
Sun 08:56:14 AM 40.3356 -75.3972 230° Southwest 448 516 38,000  Level New York Center
Sun 08:57:14 AM 40.2536 -75.5194 229° Southwest 448 516 38,000  Level New York Center
Sun 08:58:14 AM 40.1731 -75.6497 231° Southwest 455 524 38,000  Level New York Center
Sun 08:59:14 AM 40.0992 -75.7747 232° Southwest 455 524 38,000  Level New York Center
Sun 09:00:14 AM 40.0208 -75.8994 231° Southwest 455 524 38,000  Level New York Center
Sun 09:01:14 AM 39.9403 -76.0233 230° Southwest 455 524 38,000  Level New York Center
Sun 09:02:14 AM 39.8639 -76.1475 231° Southwest 455 524 38,000  Level New York Center
Sun 09:03:59 AM 39.7322 -76.3497 230° Southwest 458 527 38,000  Level Washington Center
Sun 09:04:59 AM 39.6542 -76.4756 231° Southwest 453 521 38,000  Level Washington Center
Sun 09:06:00 AM 39.5636 -76.6117 229° Southwest 453 521 38,000  Level Washington Center
Sun 09:06:58 AM 39.4853 -76.7317 230° Southwest 453 521 38,000  Level Washington Center
Sun 09:07:59 AM 39.4069 -76.8567 231° Southwest 453 521 38,000  Level Washington Center
Sun 09:08:59 AM 39.3264 -76.9814 230° Southwest 453 521 38,000  Level Washington Center
Sun 09:09:57 AM 39.2478 -77.1031 230° Southwest 453 521 38,000  Level Washington Center
Sun 09:10:58 AM 39.1650 -77.2272 229° Southwest 453 521 38,000  Level Washington Center
Sun 09:11:59 AM 39.0861 -77.3458 229° Southwest 453 521 38,000  Level Washington Center
Sun 09:13:00 AM 39.0050 -77.4694 230° Southwest 453 521 38,000  Level Washington Center
Sun 09:13:59 AM 38.9217 -77.5953 230° Southwest 460 529 38,000  Level Washington Center
Sun 09:14:59 AM 38.8425 -77.7186 231° Southwest 460 529 38,000  Level Washington Center
Sun 09:16:00 AM 38.7633 -77.8333 229° Southwest 466 536 38,000  Level Washington Center
Sun 09:17:00 AM 38.6839 -77.9533 230° Southwest 466 536 38,000  Level Washington Center
Sun 09:17:59 AM 38.6042 -78.0756 230° Southwest 466 536 38,000  Level Washington Center
Sun 09:19:00 AM 38.5225 -78.1975 229° Southwest 466 536 38,000  Level Washington Center
Sun 09:20:00 AM 38.4383 -78.3192 229° Southwest 466 536 38,000  Level Washington Center
Sun 09:20:58 AM 38.3583 -78.4408 230° Southwest 461 531 38,000  Level Washington Center
Sun 09:21:58 AM 38.2717 -78.5750 231° Southwest 461 531 38,000  Level Washington Center
Sun 09:22:59 AM 38.1917 -78.6933 229° Southwest 454 522 38,000  Level Washington Center
Sun 09:23:59 AM 38.1069 -78.8167 229° Southwest 459 528 38,000  Level Washington Center
Sun 09:25:00 AM 38.0222 -78.9394 229° Southwest 465 535 38,000  Level Washington Center
Sun 09:26:00 AM 37.9483 -79.0442 228° Southwest 465 535 38,000  Level Washington Center
Sun 09:26:58 AM 37.8694 -79.1747 233° Southwest 465 535 38,000  Level Washington Center
Sun 09:27:59 AM 37.8050 -79.3083 239° Southwest 465 535 38,000  Level Washington Center
Sun 09:29:00 AM 37.7336 -79.4569 239° Southwest 458 527 38,000  Level Washington Center
Sun 09:30:00 AM 37.6625 -79.5897 236° Southwest 458 527 38,000  Level Washington Center
Sun 09:30:58 AM 37.5931 -79.7253 237° Southwest 458 527 38,000  Level Washington Center
Sun 09:32:00 AM 37.5322 -79.8553 239° Southwest 477 549 38,000  Level Washington Center
Sun 09:33:45 AM 37.4064 -80.0939 236° Southwest 472 543 38,000  Level Atlanta Center
Sun 09:34:45 AM 37.3278 -80.2417 236° Southwest 472 543 38,000  Level Atlanta Center
Sun 09:35:45 AM 37.2589 -80.3806 238° Southwest 472 543 38,000  Level Atlanta Center
Sun 09:36:45 AM 37.1878 -80.5142 236° Southwest 472 543 38,000  Level Atlanta Center
Sun 09:37:45 AM 37.1189 -80.6525 238° Southwest 472 543 38,000  Level Atlanta Center
Sun 09:38:45 AM 37.0639 -80.7772 241° Southwest 472 543 38,000  Level Atlanta Center
Sun 09:39:45 AM 37.0092 -80.9250 245° Southwest 465 535 38,000  Level Atlanta Center
Sun 09:40:45 AM 36.9608 -81.0669 247° West 460 529 38,000  Level Atlanta Center
Sun 09:41:45 AM 36.9017 -81.2119 243° Southwest 455 524 38,000  Level Atlanta Center
Sun 09:42:45 AM 36.8236 -81.3575 236° Southwest 463 533 38,000  Level Atlanta Center
Sun 09:43:45 AM 36.7636 -81.4761 238° Southwest 468 539 38,000  Level Atlanta Center
Sun 09:44:45 AM 36.6872 -81.6236 237° Southwest 468 539 38,000  Level Atlanta Center
Sun 09:45:45 AM 36.6147 -81.7575 236° Southwest 468 539 38,000  Level Atlanta Center
Sun 09:46:45 AM 36.5422 -81.8939 237° Southwest 473 544 38,000  Level Atlanta Center
Sun 09:47:45 AM 36.4714 -82.0225 236° Southwest 468 539 38,000  Level Atlanta Center
Sun 09:48:45 AM 36.3983 -82.1583 236° Southwest 473 544 38,000  Level Atlanta Center
Sun 09:49:45 AM 36.3253 -82.2917 236° Southwest 473 544 38,000  Level Atlanta Center
Sun 09:50:45 AM 36.2522 -82.4269 236° Southwest 473 544 38,000  Level Atlanta Center
Sun 09:51:45 AM 36.1889 -82.5467 237° Southwest 473 544 38,000  Level Atlanta Center
Sun 09:52:45 AM 36.1156 -82.6817 236° Southwest 473 544 38,000  Level Atlanta Center
Sun 09:53:45 AM 36.0417 -82.8139 235° Southwest 473 544 38,000  Level Atlanta Center
Sun 09:54:45 AM 35.9678 -82.9483 236° Southwest 473 544 38,000  Level Atlanta Center
Sun 09:55:45 AM 35.8919 -83.0853 236° Southwest 473 544 38,000  Level Atlanta Center
Sun 09:56:45 AM 35.8219 -83.2167 237° Southwest 473 544 38,000  Level Atlanta Center
Sun 09:57:45 AM 35.7475 -83.3478 235° Southwest 473 544 38,000  Level Atlanta Center
Sun 09:58:45 AM 35.6753 -83.4839 237° Southwest 473 544 38,000  Level Atlanta Center
Sun 09:59:45 AM 35.6006 -83.6122 234° Southwest 473 544 38,000  Level Atlanta Center
Sun 10:00:45 AM 35.5281 -83.7478 237° Southwest 478 550 38,000  Level Atlanta Center
Sun 10:01:45 AM 35.4511 -83.8806 235° Southwest 478 550 38,000  Level Atlanta Center
Sun 10:02:45 AM 35.3761 -84.0133 235° Southwest 478 550 38,000  Level Atlanta Center
Sun 10:03:45 AM 35.3008 -84.1456 235° Southwest 478 550 38,000  Level Atlanta Center
Sun 10:04:45 AM 35.2236 -84.2803 235° Southwest 478 550 38,000  Level Atlanta Center
Sun 10:05:45 AM 35.1419 -84.4247 235° Southwest 478 550 38,000  Level Atlanta Center
Sun 10:06:45 AM 35.0661 -84.5589 235° Southwest 478 550 38,000  Level Atlanta Center
Sun 10:07:45 AM 34.9883 -84.6903 234° Southwest 483 556 38,000  Level Atlanta Center
Sun 10:08:45 AM 34.9106 -84.8214 234° Southwest 483 556 38,000  Level Atlanta Center
Sun 10:09:45 AM 34.8344 -84.9547 235° Southwest 483 556 38,000  Level Atlanta Center
Sun 10:10:45 AM 34.7583 -85.0856 235° Southwest 488 562 38,000  Level Atlanta Center
Sun 10:11:45 AM 34.6797 -85.2183 234° Southwest 488 562 38,000  Level Atlanta Center
Sun 10:12:45 AM 34.6011 -85.3536 235° Southwest 488 562 38,000  Level Atlanta Center
Sun 10:13:45 AM 34.5247 -85.4861 235° Southwest 488 562 38,000  Level Atlanta Center
Sun 10:14:45 AM 34.4436 -85.6181 233° Southwest 488 562 38,000  Level Atlanta Center
Sun 10:15:45 AM 34.3794 -85.7378 237° Southwest 488 562 38,000  Level Atlanta Center
Sun 10:16:45 AM 34.2897 -85.8767 232° Southwest 488 562 38,000  Level Atlanta Center
Sun 10:17:45 AM 34.2106 -86.0081 234° Southwest 488 562 38,000  Level Atlanta Center
Sun 10:18:45 AM 34.1311 -86.1417 234° Southwest 493 567 38,000  Level Atlanta Center
Sun 10:19:45 AM 34.0494 -86.2728 233° Southwest 493 567 38,000  Level Atlanta Center
Sun 10:20:45 AM 33.9697 -86.4033 234° Southwest 493 567 38,000  Level Atlanta Center
Sun 10:21:45 AM 33.8922 -86.5314 234° Southwest 493 567 38,000  Level Atlanta Center
Sun 10:22:45 AM 33.8122 -86.6614 233° Southwest 493 567 38,000  Level Atlanta Center
Sun 10:23:45 AM 33.7322 -86.7914 234° Southwest 488 562 38,000  Level Atlanta Center
Sun 10:24:45 AM 33.6561 -86.9261 236° Southwest 488 562 38,000  Level Atlanta Center
Sun 10:25:45 AM 33.6006 -87.0692 245° Southwest 478 550 38,000  Level Atlanta Center
Sun 10:26:45 AM 33.5425 -87.2142 244° Southwest 478 550 38,000  Level Atlanta Center
Sun 10:28:38 AM 33.4400 -87.4694 244° Southwest 475 547 38,000  Level Memphis Center
Sun 10:29:38 AM 33.3806 -87.6158 244° Southwest 475 547 38,000  Level Memphis Center
Sun 10:30:38 AM 33.3211 -87.7592 244° Southwest 475 547 38,000  Level Memphis Center
Sun 10:31:38 AM 33.2633 -87.9025 244° Southwest 475 547 38,000  Level Memphis Center
Sun 10:32:38 AM 33.2056 -88.0483 245° Southwest 475 547 38,000  Level Memphis Center
Sun 10:33:38 AM 33.1456 -88.1886 243° Southwest 475 547 38,000  Level Memphis Center
Sun 10:34:38 AM 33.0936 -88.3289 246° West 468 539 38,000  Level Memphis Center
Sun 10:35:38 AM 33.0333 -88.4667 242° Southwest 473 544 38,000  Level Memphis Center
Sun 10:36:38 AM 32.9769 -88.6039 244° Southwest 473 544 38,000  Level Memphis Center
Sun 10:37:38 AM 32.9203 -88.7436 244° Southwest 468 539 38,000  Level Memphis Center
Sun 10:38:38 AM 32.8614 -88.8808 243° Southwest 468 539 38,000  Level Memphis Center
Sun 10:39:38 AM 32.8025 -89.0225 244° Southwest 468 539 38,000  Level Memphis Center
Sun 10:40:38 AM 32.7411 -89.1569 242° Southwest 468 539 38,000  Level Memphis Center
Sun 10:41:38 AM 32.6842 -89.2958 244° Southwest 468 539 38,000  Level Memphis Center
Sun 10:42:38 AM 32.6247 -89.4347 243° Southwest 468 539 38,000  Level Memphis Center
Sun 10:43:38 AM 32.5650 -89.5686 242° Southwest 468 539 38,000  Level Memphis Center
Sun 10:44:38 AM 32.5072 -89.7044 243° Southwest 468 539 38,000  Level Memphis Center
Sun 10:45:38 AM 32.4494 -89.8403 243° Southwest 468 539 38,000  Level Memphis Center
Sun 10:46:38 AM 32.3917 -89.9736 243° Southwest 468 539 38,000  Level Memphis Center
Sun 10:47:38 AM 32.3333 -90.1089 243° Southwest 468 539 38,000  Level Memphis Center
Sun 10:48:38 AM 32.2753 -90.2419 243° Southwest 463 533 38,000  Level Memphis Center
Sun 10:49:38 AM 32.2169 -90.3744 243° Southwest 463 533 38,000  Level Memphis Center
Sun 10:50:38 AM 32.1583 -90.5069 242° Southwest 457 526 38,000  Level Memphis Center
Sun 10:51:21 AM 32.1128 -90.6125 243° Southwest 454 522 38,000  Level Houston Center
Sun 10:52:23 AM 32.0547 -90.7456 243° Southwest 455 524 38,000  Level Houston Center
Sun 10:53:25 AM 32.0025 -90.8689 243° Southwest 457 526 38,000  Level Houston Center
Sun 10:54:27 AM 31.9514 -91.0036 246° West 453 521 38,000  Level Houston Center
Sun 10:55:28 AM 31.8856 -91.1664 245° Southwest 460 529 38,000  Level Houston Center
Sun 10:56:30 AM 31.8322 -91.3003 245° Southwest 456 525 38,000  Level Houston Center
Sun 10:57:32 AM 31.7794 -91.4356 245° Southwest 456 525 38,000  Level Houston Center
Sun 10:58:34 AM 31.7258 -91.5683 245° Southwest 452 520 38,000  Level Houston Center
Sun 10:59:36 AM 31.6728 -91.7003 245° Southwest 450 518 38,000  Level Houston Center
Sun 11:00:37 AM 31.6189 -91.8339 245° Southwest 454 522 38,000  Level Houston Center
Sun 11:01:39 AM 31.5544 -91.9928 245° Southwest 452 520 38,000  Level Houston Center
Sun 11:02:41 AM 31.5000 -92.1200 243° Southwest 447 514 38,000  Level Houston Center
Sun 11:03:43 AM 31.4478 -92.2544 246° West 450 518 38,000  Level Houston Center
Sun 11:04:45 AM 31.3944 -92.3858 245° Southwest 450 518 38,000  Level Houston Center
Sun 11:05:46 AM 31.3364 -92.5131 242° Southwest 452 520 38,000  Level Houston Center
Sun 11:06:48 AM 31.2847 -92.6442 245° Southwest 446 513 38,000  Level Houston Center
Sun 11:07:50 AM 31.2328 -92.7775 246° West 449 517 38,000  Level Houston Center
Sun 11:08:52 AM 31.1678 -92.9325 244° Southwest 446 513 38,000  Level Houston Center
Sun 11:09:54 AM 31.1139 -93.0592 244° Southwest 440 506 38,000  Level Houston Center
Sun 11:10:56 AM 31.0603 -93.1881 244° Southwest 441 507 38,000  Level Houston Center
Sun 11:11:58 AM 31.0081 -93.3139 244° Southwest 436 502 38,000  Level Houston Center
Sun 11:13:00 AM 30.9556 -93.4392 244° Southwest 433 498 38,000 -97 Level Houston Center
Sun 11:14:02 AM 30.8931 -93.5889 244° Southwest 433 498 37,800 -1,548 Descending Houston Center
Sun 11:15:04 AM 30.8397 -93.7150 244° Southwest 438 504 34,800 -2,323 Descending Houston Center
Sun 11:16:06 AM 30.7847 -93.8464 244° Southwest 454 522 33,000 -871 Descending Houston Center
Sun 11:17:08 AM 30.7292 -93.9786 244° Southwest 459 528 33,000  Level Houston Center
Sun 11:18:10 AM 30.6736 -94.1100 244° Southwest 459 528 33,000 -2,168 Level Houston Center
Sun 11:19:07 AM 30.6044 -94.2647 243° Southwest 463 533 28,700 -4,258 Descending Houston Center
Sun 11:19:12 AM 30.6044 -94.2703 270° West 462 532 28,600 -4,186 Descending Houston Center
Sun 11:19:50 AM 30.5653 -94.3550 242° Southwest 480 552 25,700 -3,871 Descending Houston Center
Sun 11:20:14 AM 30.5439 -94.4100 246° West 479 551 24,600 -3,581 Descending Houston Center
Sun 11:20:52 AM 30.5036 -94.4992 242° Southwest 489 563 22,000 -3,484 Descending Houston Center
Sun 11:21:16 AM 30.4758 -94.5475 236° Southwest 476 548 21,000 -3,107 Descending Houston Center
Sun 11:21:48 AM 30.4311 -94.6175 233° Southwest 459 528 19,100 -3,000 Descending Houston Center
Sun 11:22:18 AM 30.4003 -94.6664 234° Southwest 457 526 17,900 -2,754 Descending Houston Center
Sun 11:22:49 AM 30.3561 -94.7339 233° Southwest 435 501 16,300 -2,226 Descending Houston Center
Sun 11:23:20 AM 30.3283 -94.7764 233° Southwest 437 503 15,600 -1,377 Descending Houston Center
Sun 11:23:50 AM 30.2883 -94.8369 233° Southwest 385 443 14,900 -1,355 Descending Houston Center
Sun 11:24:22 AM 30.2664 -94.8742 236° Southwest 389 448 14,200 -1,258 Descending Houston Center
Sun 11:24:52 AM 30.2258 -94.9319 231° Southwest 352 405 13,600 -952 Descending Houston Center
Sun 11:25:25 AM 30.2072 -94.9633 236° Southwest 360 414 13,200 -1,082 Descending Houston Center
Sun 11:25:53 AM 30.1672 -95.0239 233° Southwest 349 402 12,500 -1,161 Descending Houston Center
Sun 11:26:27 AM 30.1372 -95.0692 233° Southwest 348 400 12,000 -985 Descending Houston Center
Sun 11:27:00 AM 30.0814 -95.0947 202° Southwest 336 387 11,400 -871 Descending Houston Center
Sun 11:27:29 AM 30.0492 -95.1089 201° Southwest 341 392 11,100 -774 Descending Houston Center
Sun 11:28:02 AM 29.9947 -95.1322 200° South 337 388 10,600 -871 Descending Houston Center
Sun 11:28:31 AM 29.9625 -95.1458 200° South 335 386 10,200 -677 Descending Houston Center
Sun 11:29:04 AM 29.9058 -95.1694 200° South 326 375 9,900 -677 Descending Houston Center
Sun 11:29:33 AM 29.8783 -95.1817 201° Southwest 325 374 9,500 -1,180 Descending Houston Center
Sun 11:30:05 AM 29.8250 -95.2036 200° South 290 334 8,700 -1,355 Descending Houston Center
Sun 11:30:35 AM 29.8031 -95.2144 203° Southwest 297 342 8,100 -1,475 Descending Houston Center
Sun 11:31:06 AM 29.7497 -95.2319 196° South 289 333 7,200 -1,645 Descending Houston Center
Sun 11:31:37 AM 29.7111 -95.2347 184° South 283 326 6,400 -1,065 Descending Houston Center
Sun 11:32:08 AM 29.6722 -95.2342 179° South 273 314 6,100 -484 Descending Houston Center
Sun 11:32:39 AM 29.6364 -95.2372 184° South 275 316 5,900 -98 Descending Houston Center
Sun 11:33:09 AM 29.5928 -95.2367 179° South 260 299 6,000  Climbing Houston Center
Sun 11:33:41 AM 29.5692 -95.2436 194° South 261 300 5,900 -1,452 Descending Houston Center
Sun 11:34:11 AM 29.5350 -95.2700 214° Southwest 257 296 4,500 -1,905 Descending Houston Center
Sun 11:34:44 AM 29.5136 -95.2914 221° Southwest 258 297 3,900 -885 Descending Houston Center
Sun 11:35:12 AM 29.4794 -95.3294 224° Southwest 257 296 3,600 -774 Descending Houston Center
Sun 11:35:46 AM 29.4578 -95.3606 231° Southwest 257 296 3,100 -581 Descending Houston Center
Sun 11:36:14 AM 29.4689 -95.3956 290° West 233 268 3,000 -677 Descending Houston Center
Sun 11:36:48 AM 29.4953 -95.4106 334° Northwest 255 293 2,400 -885 Descending Houston Center
Sun 11:37:15 AM 29.5233 -95.3964 24° Northeast 225 259 2,100 -387 Descending Houston Center
Sun 11:37:50 AM 29.5519 -95.3828 22° Northeast 233 268 2,000 -295 Descending Houston Center
Sun 11:38:16 AM 29.5725 -95.3592 45° Northeast 211 243 1,800 -774 Descending Houston Center
Sun 11:38:52 AM 29.5928 -95.3381 42° Northeast 216 249 1,200 -968 Descending Houston Center
Sun 11:39:18 AM 29.6106 -95.3161 47° Northeast 153 176 800 -774 Descending Houston Center
Sun 11:39:54 AM 29.6236 -95.3031 41° Northeast 179 206 400 -667 Descending Houston Center

Login

Don't have an account? Register now (free) for customized features, flight alerts, and more!